D/T METAR WX W/DIR W/SPE G/SPE TEMP DEWP
23/08/19 10:50 EGYH 230950Z 21010KT CAVOK 22/16 Q1024 BLU SSW (210°) 11.5mph 22°C 16°C
23/08/19 09:50 EGYH 230850Z 20008KT CAVOK 20/16 Q1025 RMK BLU SSW (200°) 9.2mph 20°C 16°C
23/08/19 08:50 EGYH 230750Z 22006KT CAVOK 18/16 Q1024 RMK BLU SW (220°) 6.9mph 18°C 16°C
22/08/19 14:50 EGYH 221350Z 23018KT 9999 SCT035 22/14 Q1021 RMK BLU SW (230°) 20.7mph 22°C 14°C
22/08/19 13:50 EGYH 221250Z 25017KT 9999 BKN035 24/15 Q1022 RMK BLU WSW (250°) 19.6mph 24°C 15°C
22/08/19 12:50 EGYH 221150Z 25018KT 9999 SCT030 23/15 Q1022 RMK BLU WSW (250°) 20.7mph 23°C 15°C
22/08/19 11:50 EGYH 221050Z 24019KT 9999 BKN030 22/14 Q1022 RMK BLU WSW (240°) 21.9mph 22°C 14°C
22/08/19 10:50 EGYH 220950Z 24016KT 9999 FEW030 20/13 Q1022 RMK BLU WSW (240°) 18.4mph 20°C 13°C
22/08/19 09:50 EGYH 220850Z 23017KT CAVOK 19/13 Q1022 RMK BLU SW (230°) 19.6mph 19°C 13°C
22/08/19 08:50 EGYH 220750Z 23018KT CAVOK 16/12 Q1022 RMK BLU SW (230°) 20.7mph 16°C 12°C
21/08/19 14:50 EGYH 211350Z 25012KT 9999 SCT035 23/09 Q1024 RMK BLU WSW (250°) 13.8mph 23°C 9°C
21/08/19 13:50 EGYH 211250Z 25011KT 9999 SCT035 23/11 Q1025 RMK BLU WSW (250°) 12.7mph 23°C 11°C
21/08/19 12:50 EGYH 211150Z 25014KT 9999 SCT035 22/11 Q1025 RMK BLU WSW (250°) 16.1mph 22°C 11°C
21/08/19 11:50 EGYH 211050Z 25015KT 9999 SCT035 21/12 Q1025 RMK BLU WSW (250°) 17.3mph 21°C 12°C
21/08/19 10:50 EGYH 210950Z 25014KT 9999 FEW020 20/12 Q1026 RMK BLU WSW (250°) 16.1mph 20°C 12°C
21/08/19 08:50 EGYH 210750Z 25011KT CAVOK 15/12 Q1026 RMK BLU WSW (250°) 12.7mph 15°C 12°C
20/08/19 15:50 EGYH 201450Z 26012KT 9999 SCT045 19/07 Q1022 RMK BLU W (260°) 13.8mph 19°C 7°C
20/08/19 14:50 EGYH 201350Z 27013KT 9999 SCT040 21/09 Q1022 RMK BLU W (270°) 15.0mph 21°C 9°C
20/08/19 13:50 EGYH 201250Z 33011KT 9999 SCT040 18/09 Q1021 RMK BLU NNW (330°) 12.7mph 18°C 9°C
20/08/19 12:50 EGYH 201150Z 31013KT 9999 SCT030 BKN060 17/10 Q1021 RMK BLU NW (310°) 15.0mph 17°C 10°C
20/08/19 11:50 EGYH 201050Z 27012KT 9999 SCT030 BKN060 17/10 Q1021 RMK BLU W (270°) 13.8mph 17°C 10°C
20/08/19 10:50 EGYH 200950Z 28013KT 9999 FEW025 SCT060 16/12 Q1021 RMK BLU W (280°) 15.0mph 16°C 12°C
20/08/19 09:50 EGYH 200850Z 27012KT 9999 FEW025 SCT060 16/12 Q1020 RMK BLU W (270°) 13.8mph 16°C 12°C
20/08/19 08:50 EGYH 200750Z 26009KT CAVOK 14/11 Q1020 RMK BLU W (260°) 10.4mph 14°C 11°C
19/08/19 15:50 EGYH 191450Z 29014KT 9999 FEW025 SCT040 19/12 Q1012 RMK BLU WNW (290°) 16.1mph 19°C 12°C
19/08/19 14:50 EGYH 191350Z 30015KT 9999 FEW020 FEW030CB SCT040 17/11 Q1012 RMK BLU WNW (300°) 17.3mph 17°C 11°C
19/08/19 12:50 EGYH 191150Z 26012KT 9999 SCT040 20/12 Q1011 RMK BLU W (260°) 13.8mph 20°C 12°C
19/08/19 11:50 EGYH 191050Z 26013KT 9999 FEW035 SCT045 20/12 Q1011 RMK BLU W (260°) 15.0mph 20°C 12°C
19/08/19 10:50 EGYH 190950Z 26009KT 9999 SCT040 BKN080 18/13 Q1011 RMK BLU W (260°) 10.4mph 18°C 13°C
19/08/19 09:50 EGYH 190850Z 25013KT 9999 FEW015 SCT040 BKN080 17/13 Q1011 RMK BLU WSW (250°) 15.0mph 17°C 13°C
19/08/19 08:50 EGYH 190750Z 25014KT 9999 FEW015 BKN070 15/13 Q1010 RMK BLU WSW (250°) 16.1mph 15°C 13°C
16/08/19 10:50 EGYH 160950Z 21016KT CAVOK 17/12 Q1010 RMK BLU SSW (210°) 18.4mph 17°C 12°C
16/08/19 09:50 EGYH 160850Z 21014KT CAVOK 17/14 Q1011 RMK BLU SSW (210°) 16.1mph 17°C 14°C
16/08/19 08:50 EGYH 160750Z 20012KT CAVOK 15/13 Q1012 RMK BLU SSW (200°) 13.8mph 15°C 13°C
15/08/19 15:50 EGYH 151450Z 29018KT 9999 SCT040 19/09 Q1012 RMK BLU WNW (290°) 20.7mph 19°C 9°C
15/08/19 14:50 EGYH 151350Z 29018KT 9999 SCT040 19/10 Q1010 RMK BLU WNW (290°) 20.7mph 19°C 10°C
15/08/19 13:50 EGYH 151250Z 30024KT 9999 SCT030 20/11 Q1010 RMK BLU WNW (300°) 27.6mph 20°C 11°C
15/08/19 11:50 EGYH 151050Z 27020G30KT 9999 FEW020 BKN030 18/12 Q1009 RMK BLU W (270°) 23.0mph 34.5mph 18°C 12°C
15/08/19 09:50 EGYH 150850Z 28018KT 9999 SCT015 BKN025 17/13 Q1007 RMK WHT W (280°) 20.7mph 17°C 13°C
15/08/19 08:50 EGYH 150750Z 27015KT 9999 FEW012 SCT025 17/15 Q1007 RMK BLU W (270°) 17.3mph 17°C 15°C
14/08/19 14:50 EGYH 141350Z 20022KT 4000 RA SCT010 BKN020 15/15 Q1009 RMK GRN RA SSW (200°) 25.3mph 15°C 15°C
14/08/19 13:50 EGYH 141250Z 16012KT 6000 RA BKN020 14/14 Q1010 RMK WHT RA SSE (160°) 13.8mph 14°C 14°C
14/08/19 12:50 EGYH 141150Z 19017KT 6000 RA BKN020 15/13 Q1011 RMK WHT RA S (190°) 19.6mph 15°C 13°C
14/08/19 11:50 EGYH 141050Z 27025KT 9999 FEW012 SCT020 BKN050 17/12 Q1011 RMK WHT W (270°) 28.8mph 17°C 12°C
14/08/19 10:50 EGYH 140950Z 21016KT 9999 SCT020 BKN070 18/13 Q1012 RMK WHT SSW (210°) 18.4mph 18°C 13°C
14/08/19 09:50 EGYH 140850Z 21017KT 9999 SCT030 18/14 Q1013 RMK BLU SSW (210°) 19.6mph 18°C 14°C
14/08/19 08:50 EGYH 140750Z 19010KT CAVOK 15/13 Q1013 RMK BLU S (190°) 11.5mph 15°C 13°C
13/08/19 14:50 EGYH 131350Z 33008KT 9999 FEW035CB SCT045 18/11 Q1016 RMK BLU NNW (330°) 9.2mph 18°C 11°C